Terminal Aerodrome Forecast
Issued by NWS

Home | Current Version | Previous Version | Text Only | Print | Product List | Glossary On
Versions: 1 2 3 4 5 6 7 8 9 10 11 12 13 14 15 16 17 18 19 20 21 22 23 24 25 26 27 28 29 30 31 32 33 34 35 36 37 38 39 40 41 42 43 44 45
000
FTUS46 KEKA 192346
TAFACV
TAF
KACV 192346Z 2000/2024 16006KT P6SM VCSH SCT025 BKN080
     FM200600 14008KT 6SM -RA BR SCT015 BKN040
     FM200900 15010G18KT 6SM -RA SCT015 BKN040
     FM201500 16012G20KT 4SM RA SCT012 OVC025
     FM202000 15008KT 2SM RA BR SCT008 OVC015=

USA.gov is the U.S. government's official web portal to all federal, state and local government web resources and services.